sensor_id;sensor_type;location;lat;lon;timestamp;pressure;altitude;pressure_sealevel;temperature;humidity
15634;BME280;14654;48.898;8.308;2023-04-30T00:01:38;100611.44;;;11.32;100.00
15634;BME280;14654;48.898;8.308;2023-04-30T00:04:03;100613.19;;;11.27;100.00
15634;BME280;14654;48.898;8.308;2023-04-30T00:06:29;100621.00;;;11.22;100.00
15634;BME280;14654;48.898;8.308;2023-04-30T00:08:55;100617.56;;;11.20;100.00
15634;BME280;14654;48.898;8.308;2023-04-30T00:11:20;100628.78;;;11.16;100.00
15634;BME280;14654;48.898;8.308;2023-04-30T00:13:45;100625.38;;;11.11;100.00
15634;BME280;14654;48.898;8.308;2023-04-30T00:16:11;100627.09;;;11.10;100.00
15634;BME280;14654;48.898;8.308;2023-04-30T00:18:37;100622.81;;;11.08;100.00
15634;BME280;14654;48.898;8.308;2023-04-30T00:21:03;100622.81;;;11.06;100.00
15634;BME280;14654;48.898;8.308;2023-04-30T00:23:28;100621.09;;;11.04;100.00
15634;BME280;14654;48.898;8.308;2023-04-30T00:25:53;100620.25;;;11.03;100.00
15634;BME280;14654;48.898;8.308;2023-04-30T00:28:19;100628.00;;;11.02;100.00
15634;BME280;14654;48.898;8.308;2023-04-30T00:30:44;100629.75;;;11.01;100.00
15634;BME280;14654;48.898;8.308;2023-04-30T00:33:10;100626.28;;;11.01;100.00
15634;BME280;14654;48.898;8.308;2023-04-30T00:35:35;100619.41;;;11.01;100.00
15634;BME280;14654;48.898;8.308;2023-04-30T00:38:00;100619.38;;;11.00;100.00
15634;BME280;14654;48.898;8.308;2023-04-30T00:40:26;100622.03;;;10.96;100.00
15634;BME280;14654;48.898;8.308;2023-04-30T00:42:51;100618.56;;;10.93;100.00
15634;BME280;14654;48.898;8.308;2023-04-30T00:45:20;100622.91;;;10.92;100.00
15634;BME280;14654;48.898;8.308;2023-04-30T00:47:46;100618.56;;;10.93;100.00
15634;BME280;14654;48.898;8.308;2023-04-30T00:50:12;100619.44;;;10.93;100.00
15634;BME280;14654;48.898;8.308;2023-04-30T00:52:41;100620.28;;;10.94;100.00
15634;BME280;14654;48.898;8.308;2023-04-30T00:55:06;100622.84;;;10.97;100.00
15634;BME280;14654;48.898;8.308;2023-04-30T00:57:33;100622.84;;;10.97;100.00
15634;BME280;14654;48.898;8.308;2023-04-30T01:00:00;100611.66;;;10.96;100.00
15634;BME280;14654;48.898;8.308;2023-04-30T01:02:26;100613.34;;;10.97;100.00
15634;BME280;14654;48.898;8.308;2023-04-30T01:04:51;100613.38;;;10.96;100.00
15634;BME280;14654;48.898;8.308;2023-04-30T01:07:16;100617.69;;;10.95;100.00
15634;BME280;14654;48.898;8.308;2023-04-30T01:09:42;100614.25;;;10.96;100.00
15634;BME280;14654;48.898;8.308;2023-04-30T01:12:32;100600.41;;;10.96;100.00
15634;BME280;14654;48.898;8.308;2023-04-30T01:15:17;100603.91;;;10.93;100.00
15634;BME280;14654;48.898;8.308;2023-04-30T01:18:03;100602.19;;;10.89;100.00
15634;BME280;14654;48.898;8.308;2023-04-30T01:20:29;100594.44;;;10.85;100.00
15634;BME280;14654;48.898;8.308;2023-04-30T01:23:23;100594.47;;;10.81;100.00
15634;BME280;14654;48.898;8.308;2023-04-30T01:25:59;100589.28;;;10.78;100.00
15634;BME280;14654;48.898;8.308;2023-04-30T01:28:34;100592.75;;;10.74;100.00
15634;BME280;14654;48.898;8.308;2023-04-30T01:31:00;100594.50;;;10.71;100.00
15634;BME280;14654;48.898;8.308;2023-04-30T01:33:25;100594.53;;;10.69;100.00
15634;BME280;14654;48.898;8.308;2023-04-30T01:36:12;100592.78;;;10.66;100.00
15634;BME280;14654;48.898;8.308;2023-04-30T01:46:56;100588.53;;;10.59;100.00
15634;BME280;14654;48.898;8.308;2023-04-30T01:49:26;100598.03;;;10.59;100.00
15634;BME280;14654;48.898;8.308;2023-04-30T01:52:04;100590.25;;;10.57;100.00
15634;BME280;14654;48.898;8.308;2023-04-30T01:54:39;100583.38;;;10.55;100.00
15634;BME280;14654;48.898;8.308;2023-04-30T01:57:32;100585.97;;;10.51;100.00
15634;BME280;14654;48.898;8.308;2023-04-30T02:00:01;100586.81;;;10.52;100.00
15634;BME280;14654;48.898;8.308;2023-04-30T02:02:28;100583.34;;;10.56;100.00
15634;BME280;14654;48.898;8.308;2023-04-30T02:04:53;100587.69;;;10.52;100.00
15634;BME280;14654;48.898;8.308;2023-04-30T02:07:36;100585.09;;;10.59;100.00
15634;BME280;14654;48.898;8.308;2023-04-30T02:10:05;100588.50;;;10.61;100.00
15634;BME280;14654;48.898;8.308;2023-04-30T02:12:30;100591.94;;;10.60;100.00
15634;BME280;14654;48.898;8.308;2023-04-30T02:14:55;100587.63;;;10.62;100.00
15634;BME280;14654;48.898;8.308;2023-04-30T02:17:21;100593.69;;;10.65;100.00
15634;BME280;14654;48.898;8.308;2023-04-30T02:19:46;100591.06;;;10.67;100.00
15634;BME280;14654;48.898;8.308;2023-04-30T02:22:11;100596.22;;;10.68;100.00
15634;BME280;14654;48.898;8.308;2023-04-30T02:24:37;100594.53;;;10.69;100.00
15634;BME280;14654;48.898;8.308;2023-04-30T02:27:02;100590.22;;;10.68;100.00
15634;BME280;14654;48.898;8.308;2023-04-30T02:29:27;100597.94;;;10.73;100.00
15634;BME280;14654;48.898;8.308;2023-04-30T02:31:53;100587.59;;;10.76;100.00
15634;BME280;14654;48.898;8.308;2023-04-30T02:34:18;100596.19;;;10.76;100.00
15634;BME280;14654;48.898;8.308;2023-04-30T02:36:43;100597.91;;;10.82;100.00
15634;BME280;14654;48.898;8.308;2023-04-30T02:39:09;100591.88;;;10.81;100.00
15634;BME280;14654;48.898;8.308;2023-04-30T02:41:34;100594.47;;;10.81;100.00
15634;BME280;14654;48.898;8.308;2023-04-30T02:44:00;100586.69;;;10.81;100.00
15634;BME280;14654;48.898;8.308;2023-04-30T02:46:25;100591.88;;;10.81;100.00
15634;BME280;14654;48.898;8.308;2023-04-30T02:48:51;100584.13;;;10.80;100.00
15634;BME280;14654;48.898;8.308;2023-04-30T02:51:16;100578.09;;;10.78;100.00
15634;BME280;14654;48.898;8.308;2023-04-30T02:53:41;100577.22;;;10.76;100.00
15634;BME280;14654;48.898;8.308;2023-04-30T02:56:07;100582.41;;;10.74;100.00
15634;BME280;14654;48.898;8.308;2023-04-30T02:58:32;100579.81;;;10.73;100.00
15634;BME280;14654;48.898;8.308;2023-04-30T03:00:57;100576.41;;;10.69;100.00
15634;BME280;14654;48.898;8.308;2023-04-30T03:03:23;100581.59;;;10.66;100.00
15634;BME280;14654;48.898;8.308;2023-04-30T03:05:48;100578.16;;;10.65;100.00
15634;BME280;14654;48.898;8.308;2023-04-30T03:08:14;100579.88;;;10.60;100.00
15634;BME280;14654;48.898;8.308;2023-04-30T03:10:39;100583.38;;;10.58;100.00
15634;BME280;14654;48.898;8.308;2023-04-30T03:13:05;100582.53;;;10.51;100.00
15634;BME280;14654;48.898;8.308;2023-04-30T03:15:31;100590.28;;;10.48;100.00
15634;BME280;14654;48.898;8.308;2023-04-30T03:17:57;100588.56;;;10.45;100.00
15634;BME280;14654;48.898;8.308;2023-04-30T03:20:22;100586.00;;;10.39;100.00
15634;BME280;14654;48.898;8.308;2023-04-30T03:22:47;100586.84;;;10.36;100.00
15634;BME280;14654;48.898;8.308;2023-04-30T03:25:13;100584.25;;;10.35;100.00
15634;BME280;14654;48.898;8.308;2023-04-30T03:27:38;100591.19;;;10.31;100.00
15634;BME280;14654;48.898;8.308;2023-04-30T03:30:04;100581.69;;;10.24;100.00
15634;BME280;14654;48.898;8.308;2023-04-30T03:32:30;100588.63;;;10.19;100.00
15634;BME280;14654;48.898;8.308;2023-04-30T03:34:56;100579.16;;;10.12;100.00
15634;BME280;14654;48.898;8.308;2023-04-30T03:37:21;100578.31;;;10.08;100.00
15634;BME280;14654;48.898;8.308;2023-04-30T03:39:46;100580.03;;;10.04;100.00
15634;BME280;14654;48.898;8.308;2023-04-30T03:42:12;100580.03;;;9.98;100.00
15634;BME280;14654;48.898;8.308;2023-04-30T03:44:37;100570.56;;;9.91;100.00
15634;BME280;14654;48.898;8.308;2023-04-30T03:47:03;100577.47;;;9.84;100.00
15634;BME280;14654;48.898;8.308;2023-04-30T03:49:28;100581.78;;;9.81;100.00
15634;BME280;14654;48.898;8.308;2023-04-30T03:51:54;100570.59;;;9.82;100.00
15634;BME280;14654;48.898;8.308;2023-04-30T03:54:19;100580.06;;;9.78;100.00
15634;BME280;14654;48.898;8.308;2023-04-30T03:56:45;100568.03;;;9.75;100.00
15634;BME280;14654;48.898;8.308;2023-04-30T03:59:10;100580.06;;;9.72;100.00
15634;BME280;14654;48.898;8.308;2023-04-30T04:01:36;100574.91;;;9.73;100.00
15634;BME280;14654;48.898;8.308;2023-04-30T04:04:01;100574.91;;;9.73;100.00
15634;BME280;14654;48.898;8.308;2023-04-30T04:06:26;100574.91;;;9.73;100.00
15634;BME280;14654;48.898;8.308;2023-04-30T04:08:52;100582.69;;;9.73;100.00
15634;BME280;14654;48.898;8.308;2023-04-30T04:11:17;100584.38;;;9.76;100.00
15634;BME280;14654;48.898;8.308;2023-04-30T04:13:42;100579.22;;;9.79;100.00
15634;BME280;14654;48.898;8.308;2023-04-30T04:16:08;100586.97;;;9.81;100.00
15634;BME280;14654;48.898;8.308;2023-04-30T04:18:33;100577.47;;;9.83;100.00
15634;BME280;14654;48.898;8.308;2023-04-30T04:20:59;100578.34;;;9.88;100.00
15634;BME280;14654;48.898;8.308;2023-04-30T04:23:25;100574.03;;;9.90;100.00
15634;BME280;14654;48.898;8.308;2023-04-30T04:25:51;100583.50;;;9.94;100.00
15634;BME280;14654;48.898;8.308;2023-04-30T04:28:17;100585.22;;;9.97;100.00
15634;BME280;14654;48.898;8.308;2023-04-30T04:30:42;100591.22;;;9.99;100.00
15634;BME280;14654;48.898;8.308;2023-04-30T04:33:08;100590.38;;;10.03;100.00
15634;BME280;14654;48.898;8.308;2023-04-30T04:35:34;100587.78;;;10.07;100.00
15634;BME280;14654;48.898;8.308;2023-04-30T04:38:00;100586.94;;;10.10;100.00
15634;BME280;14654;48.898;8.308;2023-04-30T04:40:25;100583.44;;;10.14;100.00
15634;BME280;14654;48.898;8.308;2023-04-30T04:42:50;100595.50;;;10.15;100.00
15634;BME280;14654;48.898;8.308;2023-04-30T04:45:16;100587.78;;;10.14;100.00
15634;BME280;14654;48.898;8.308;2023-04-30T04:47:41;100589.50;;;10.13;100.00
15634;BME280;14654;48.898;8.308;2023-04-30T04:50:07;100600.69;;;10.14;100.00
15634;BME280;14654;48.898;8.308;2023-04-30T04:52:32;100600.69;;;10.17;100.00
15634;BME280;14654;48.898;8.308;2023-04-30T04:54:58;100594.66;;;10.18;100.00
15634;BME280;14654;48.898;8.308;2023-04-30T04:57:23;100597.25;;;10.22;100.00
15634;BME280;14654;48.898;8.308;2023-04-30T04:59:49;100598.94;;;10.28;100.00
15634;BME280;14654;48.898;8.308;2023-04-30T05:02:14;100604.97;;;10.33;100.00
15634;BME280;14654;48.898;8.308;2023-04-30T05:04:39;100606.72;;;10.39;100.00
15634;BME280;14654;48.898;8.308;2023-04-30T05:07:06;100601.50;;;10.48;100.00
15634;BME280;14654;48.898;8.308;2023-04-30T05:09:32;100600.66;;;10.51;100.00
15634;BME280;14654;48.898;8.308;2023-04-30T05:11:57;100602.31;;;10.58;100.00
15634;BME280;14654;48.898;8.308;2023-04-30T05:14:23;100594.53;;;10.66;100.00
15634;BME280;14654;48.898;8.308;2023-04-30T05:16:48;100599.63;;;10.85;100.00
15634;BME280;14654;48.898;8.308;2023-04-30T05:19:13;100608.94;;;11.15;100.00
15634;BME280;14654;48.898;8.308;2023-04-30T05:21:39;100602.66;;;11.53;100.00
15634;BME280;14654;48.898;8.308;2023-04-30T05:24:04;100600.59;;;11.91;100.00
15634;BME280;14654;48.898;8.308;2023-04-30T05:26:29;100604.50;;;12.34;100.00
15634;BME280;14654;48.898;8.308;2023-04-30T05:28:55;100604.94;;;12.70;100.00
15634;BME280;14654;48.898;8.308;2023-04-30T05:31:20;100604.56;;;12.98;100.00
15634;BME280;14654;48.898;8.308;2023-04-30T05:33:46;100606.91;;;13.17;99.67
15634;BME280;14654;48.898;8.308;2023-04-30T05:36:12;100599.03;;;13.21;98.21
15634;BME280;14654;48.898;8.308;2023-04-30T05:38:37;100603.72;;;13.59;96.73
15634;BME280;14654;48.898;8.308;2023-04-30T05:41:02;100602.44;;;14.30;94.52
15634;BME280;14654;48.898;8.308;2023-04-30T05:43:28;100602.66;;;14.61;91.78
15634;BME280;14654;48.898;8.308;2023-04-30T05:45:53;100605.31;;;15.02;90.15
15634;BME280;14654;48.898;8.308;2023-04-30T05:48:18;100604.78;;;15.26;88.94
15634;BME280;14654;48.898;8.308;2023-04-30T05:50:44;100605.06;;;15.51;87.74
15634;BME280;14654;48.898;8.308;2023-04-30T05:53:09;100614.13;;;16.07;85.71
15634;BME280;14654;48.898;8.308;2023-04-30T05:55:35;100606.94;;;16.46;83.29
15634;BME280;14654;48.898;8.308;2023-04-30T05:58:00;100612.19;;;17.06;81.84
15634;BME280;14654;48.898;8.308;2023-04-30T06:00:25;100616.44;;;17.11;80.04
15634;BME280;14654;48.898;8.308;2023-04-30T06:02:51;100605.19;;;17.35;79.57
15634;BME280;14654;48.898;8.308;2023-04-30T06:05:17;100603.09;;;17.47;79.00
15634;BME280;14654;48.898;8.308;2023-04-30T06:07:42;100599.03;;;17.63;77.65
15634;BME280;14654;48.898;8.308;2023-04-30T06:10:08;100599.00;;;18.41;76.49
15634;BME280;14654;48.898;8.308;2023-04-30T06:12:34;100595.31;;;18.23;75.77
15634;BME280;14654;48.898;8.308;2023-04-30T06:14:59;100610.84;;;18.27;75.47
15634;BME280;14654;48.898;8.308;2023-04-30T06:17:25;100600.09;;;18.35;76.04
15634;BME280;14654;48.898;8.308;2023-04-30T06:19:50;100601.06;;;18.56;75.39
15634;BME280;14654;48.898;8.308;2023-04-30T06:22:15;100593.97;;;18.60;75.00
15634;BME280;14654;48.898;8.308;2023-04-30T06:24:40;100595.00;;;19.02;73.74
15634;BME280;14654;48.898;8.308;2023-04-30T06:27:06;100588.22;;;18.96;73.75
15634;BME280;14654;48.898;8.308;2023-04-30T06:29:31;100596.16;;;18.95;73.51
15634;BME280;14654;48.898;8.308;2023-04-30T06:31:56;100594.63;;;18.41;74.64
15634;BME280;14654;48.898;8.308;2023-04-30T06:34:22;100587.88;;;18.82;74.92
15634;BME280;14654;48.898;8.308;2023-04-30T06:36:47;100582.56;;;18.83;74.66
15634;BME280;14654;48.898;8.308;2023-04-30T06:39:14;100585.47;;;19.44;73.31
15634;BME280;14654;48.898;8.308;2023-04-30T06:41:39;100591.66;;;19.84;71.72
15634;BME280;14654;48.898;8.308;2023-04-30T06:44:05;100585.31;;;19.69;71.10
15634;BME280;14654;48.898;8.308;2023-04-30T06:46:30;100587.47;;;20.01;70.73
15634;BME280;14654;48.898;8.308;2023-04-30T06:48:55;100588.25;;;20.23;70.38
15634;BME280;14654;48.898;8.308;2023-04-30T06:51:21;100597.75;;;20.26;70.22
15634;BME280;14654;48.898;8.308;2023-04-30T06:53:46;100592.84;;;20.18;70.30
15634;BME280;14654;48.898;8.308;2023-04-30T06:56:11;100595.34;;;19.80;71.22
15634;BME280;14654;48.898;8.308;2023-04-30T06:58:37;100611.94;;;19.38;71.44
15634;BME280;14654;48.898;8.308;2023-04-30T07:01:02;100595.59;;;18.63;72.22
15634;BME280;14654;48.898;8.308;2023-04-30T07:03:27;100596.63;;;18.35;73.94
15634;BME280;14654;48.898;8.308;2023-04-30T07:05:53;100591.19;;;18.87;73.00
15634;BME280;14654;48.898;8.308;2023-04-30T07:08:18;100588.75;;;19.70;71.32
15634;BME280;14654;48.898;8.308;2023-04-30T07:10:44;100591.38;;;20.32;69.67
15634;BME280;14654;48.898;8.308;2023-04-30T07:13:09;100586.56;;;20.41;69.01
15634;BME280;14654;48.898;8.308;2023-04-30T07:15:35;100589.47;;;20.74;69.05
15634;BME280;14654;48.898;8.308;2023-04-30T07:18:01;100592.94;;;19.96;69.07
15634;BME280;14654;48.898;8.308;2023-04-30T07:20:27;100594.44;;;19.38;70.65
15634;BME280;14654;48.898;8.308;2023-04-30T07:22:53;100590.81;;;18.98;71.78
15634;BME280;14654;48.898;8.308;2023-04-30T07:25:19;100591.22;;;18.85;71.76
15634;BME280;14654;48.898;8.308;2023-04-30T07:27:45;100593.72;;;18.42;73.50
15634;BME280;14654;48.898;8.308;2023-04-30T07:30:11;100585.06;;;18.40;74.03
15634;BME280;14654;48.898;8.308;2023-04-30T07:32:37;100590.25;;;18.66;73.89
15634;BME280;14654;48.898;8.308;2023-04-30T07:35:05;100579.97;;;18.12;73.99
15634;BME280;14654;48.898;8.308;2023-04-30T07:37:30;100593.06;;;18.12;74.98
15634;BME280;14654;48.898;8.308;2023-04-30T07:39:56;100584.97;;;17.93;74.51
15634;BME280;14654;48.898;8.308;2023-04-30T07:42:21;100591.59;;;18.05;74.87
15634;BME280;14654;48.898;8.308;2023-04-30T07:44:47;100594.06;;;17.29;75.73
15634;BME280;14654;48.898;8.308;2023-04-30T07:47:13;100598.72;;;17.19;77.69
15634;BME280;14654;48.898;8.308;2023-04-30T07:49:38;100593.59;;;16.57;78.79
15634;BME280;14654;48.898;8.308;2023-04-30T07:52:03;100602.38;;;16.23;79.01
15634;BME280;14654;48.898;8.308;2023-04-30T07:54:30;100587.13;;;15.73;81.34
15634;BME280;14654;48.898;8.308;2023-04-30T07:56:55;100594.59;;;15.89;81.62
15634;BME280;14654;48.898;8.308;2023-04-30T07:59:20;100593.09;;;16.11;81.25
15634;BME280;14654;48.898;8.308;2023-04-30T08:01:48;100599.16;;;16.45;79.75
15634;BME280;14654;48.898;8.308;2023-04-30T08:04:14;100593.38;;;16.65;79.75
15634;BME280;14654;48.898;8.308;2023-04-30T08:06:39;100600.31;;;16.96;78.37
15634;BME280;14654;48.898;8.308;2023-04-30T08:09:04;100593.88;;;17.06;75.70
15634;BME280;14654;48.898;8.308;2023-04-30T08:11:30;100601.97;;;17.27;75.97
15634;BME280;14654;48.898;8.308;2023-04-30T08:13:55;100589.66;;;17.31;75.72
15634;BME280;14654;48.898;8.308;2023-04-30T08:16:20;100592.91;;;17.11;75.61
15634;BME280;14654;48.898;8.308;2023-04-30T08:18:46;100599.41;;;16.97;75.31
15634;BME280;14654;48.898;8.308;2023-04-30T08:21:13;100600.16;;;17.01;75.26
15634;BME280;14654;48.898;8.308;2023-04-30T08:23:39;100607.13;;;17.02;74.85
15634;BME280;14654;48.898;8.308;2023-04-30T08:26:04;100601.03;;;17.01;75.59
15634;BME280;14654;48.898;8.308;2023-04-30T08:28:30;100602.78;;;17.01;74.92
15634;BME280;14654;48.898;8.308;2023-04-30T08:30:55;100600.81;;;17.09;74.95
15634;BME280;14654;48.898;8.308;2023-04-30T08:33:21;100603.88;;;17.22;75.72
15634;BME280;14654;48.898;8.308;2023-04-30T08:35:46;100581.28;;;17.46;75.01
15634;BME280;14654;48.898;8.308;2023-04-30T08:38:12;100581.13;;;17.51;72.98
15634;BME280;14654;48.898;8.308;2023-04-30T08:40:38;100588.84;;;17.56;72.79
15634;BME280;14654;48.898;8.308;2023-04-30T08:43:05;100602.13;;;17.49;72.97
15634;BME280;14654;48.898;8.308;2023-04-30T08:45:32;100587.94;;;17.30;72.80
15634;BME280;14654;48.898;8.308;2023-04-30T08:47:58;100583.25;;;17.13;72.97
15634;BME280;14654;48.898;8.308;2023-04-30T08:50:24;100596.50;;;17.06;74.94
15634;BME280;14654;48.898;8.308;2023-04-30T08:52:49;100588.97;;;16.66;72.99
15634;BME280;14654;48.898;8.308;2023-04-30T08:55:15;100590.31;;;16.79;73.96
15634;BME280;14654;48.898;8.308;2023-04-30T08:57:40;100597.50;;;17.02;71.74
15634;BME280;14654;48.898;8.308;2023-04-30T09:00:06;100583.66;;;17.27;71.25
15634;BME280;14654;48.898;8.308;2023-04-30T09:02:33;100583.91;;;17.46;71.30
15634;BME280;14654;48.898;8.308;2023-04-30T09:04:58;100588.63;;;17.62;70.35
15634;BME280;14654;48.898;8.308;2023-04-30T09:07:25;100593.63;;;17.95;70.15
15634;BME280;14654;48.898;8.308;2023-04-30T09:09:53;100591.47;;;17.81;68.17
15634;BME280;14654;48.898;8.308;2023-04-30T09:12:18;100584.50;;;17.81;68.05
15634;BME280;14654;48.898;8.308;2023-04-30T09:17:23;100586.50;;;17.73;66.50
15634;BME280;14654;48.898;8.308;2023-04-30T09:19:49;100579.59;;;17.45;66.20
15634;BME280;14654;48.898;8.308;2023-04-30T09:22:22;100572.03;;;17.63;67.32
15634;BME280;14654;48.898;8.308;2023-04-30T09:24:49;100576.72;;;18.05;67.64
15634;BME280;14654;48.898;8.308;2023-04-30T09:27:19;100585.28;;;18.34;69.18
15634;BME280;14654;48.898;8.308;2023-04-30T09:29:45;100580.28;;;18.28;69.98
15634;BME280;14654;48.898;8.308;2023-04-30T09:32:11;100587.56;;;17.67;71.35
15634;BME280;14654;48.898;8.308;2023-04-30T09:34:37;100575.97;;;17.23;73.90
15634;BME280;14654;48.898;8.308;2023-04-30T09:37:03;100579.41;;;16.96;73.13
15634;BME280;14654;48.898;8.308;2023-04-30T09:39:28;100576.69;;;16.99;73.46
15634;BME280;14654;48.898;8.308;2023-04-30T09:42:06;100584.75;;;17.20;73.36
15634;BME280;14654;48.898;8.308;2023-04-30T09:44:37;100589.41;;;17.10;72.66
15634;BME280;14654;48.898;8.308;2023-04-30T09:47:03;100584.47;;;17.01;72.14
15634;BME280;14654;48.898;8.308;2023-04-30T09:49:29;100582.75;;;17.00;72.90
15634;BME280;14654;48.898;8.308;2023-04-30T09:52:00;100586.19;;;17.30;73.29
15634;BME280;14654;48.898;8.308;2023-04-30T09:54:29;100576.75;;;17.25;73.19
15634;BME280;14654;48.898;8.308;2023-04-30T09:56:56;100581.72;;;17.34;72.08
15634;BME280;14654;48.898;8.308;2023-04-30T09:59:33;100581.47;;;17.42;71.70
15634;BME280;14654;48.898;8.308;2023-04-30T10:02:05;100586.19;;;17.57;71.09
15634;BME280;14654;48.898;8.308;2023-04-30T10:04:34;100583.25;;;17.40;70.14
15634;BME280;14654;48.898;8.308;2023-04-30T10:07:09;100592.63;;;17.47;70.90
15634;BME280;14654;48.898;8.308;2023-04-30T10:09:49;100579.66;;;17.44;70.71
15634;BME280;14654;48.898;8.308;2023-04-30T10:12:15;100583.34;;;17.36;71.38
15634;BME280;14654;48.898;8.308;2023-04-30T10:14:50;100571.28;;;17.59;70.74
15634;BME280;14654;48.898;8.308;2023-04-30T10:17:16;100569.47;;;17.61;70.77
15634;BME280;14654;48.898;8.308;2023-04-30T10:19:45;100569.75;;;17.54;69.34
15634;BME280;14654;48.898;8.308;2023-04-30T10:22:12;100561.44;;;17.41;68.59
15634;BME280;14654;48.898;8.308;2023-04-30T10:24:39;100559.25;;;17.79;69.23
15634;BME280;14654;48.898;8.308;2023-04-30T10:27:06;100561.88;;;17.79;69.37
15634;BME280;14654;48.898;8.308;2023-04-30T10:29:31;100551.34;;;17.55;68.94
15634;BME280;14654;48.898;8.308;2023-04-30T10:31:57;100549.16;;;17.43;68.78
15634;BME280;14654;48.898;8.308;2023-04-30T10:37:25;100545.31;;;17.53;69.00
15634;BME280;14654;48.898;8.308;2023-04-30T10:39:52;100535.97;;;17.71;68.63
15634;BME280;14654;48.898;8.308;2023-04-30T10:42:18;100524.16;;;18.10;68.01
15634;BME280;14654;48.898;8.308;2023-04-30T10:44:43;100539.94;;;18.32;67.21
15634;BME280;14654;48.898;8.308;2023-04-30T10:47:09;100529.47;;;18.32;65.89
15634;BME280;14654;48.898;8.308;2023-04-30T10:49:34;100545.41;;;18.26;65.11
15634;BME280;14654;48.898;8.308;2023-04-30T10:52:01;100531.63;;;17.95;64.80
15634;BME280;14654;48.898;8.308;2023-04-30T10:54:35;100540.34;;;17.96;66.03
15634;BME280;14654;48.898;8.308;2023-04-30T10:57:15;100539.63;;;17.67;66.59
15634;BME280;14654;48.898;8.308;2023-04-30T10:59:52;100525.25;;;18.04;66.17
15634;BME280;14654;48.898;8.308;2023-04-30T11:02:18;100532.72;;;18.15;66.38
15634;BME280;14654;48.898;8.308;2023-04-30T11:05:19;100528.63;;;18.32;65.62
15634;BME280;14654;48.898;8.308;2023-04-30T11:07:57;100533.97;;;18.28;65.37
15634;BME280;14654;48.898;8.308;2023-04-30T11:10:24;100527.19;;;18.23;65.74
15634;BME280;14654;48.898;8.308;2023-04-30T11:12:52;100526.91;;;18.31;66.02
15634;BME280;14654;48.898;8.308;2023-04-30T11:15:25;100515.59;;;18.30;66.09
15634;BME280;14654;48.898;8.308;2023-04-30T11:17:55;100517.84;;;18.39;66.28
15634;BME280;14654;48.898;8.308;2023-04-30T11:20:22;100515.59;;;18.30;66.02
15634;BME280;14654;48.898;8.308;2023-04-30T11:23:07;100513.78;;;18.54;65.50
15634;BME280;14654;48.898;8.308;2023-04-30T11:25:44;100519.56;;;18.40;64.38
15634;BME280;14654;48.898;8.308;2023-04-30T11:28:21;100504.50;;;18.46;65.76
15634;BME280;14654;48.898;8.308;2023-04-30T11:30:57;100515.75;;;18.71;65.12
15634;BME280;14654;48.898;8.308;2023-04-30T11:33:25;100509.53;;;18.74;64.70
15634;BME280;14654;48.898;8.308;2023-04-30T11:35:51;100505.50;;;18.65;64.35
15634;BME280;14654;48.898;8.308;2023-04-30T11:38:19;100507.81;;;18.51;65.50
15634;BME280;14654;48.898;8.308;2023-04-30T11:40:46;100511.91;;;18.58;64.58
15634;BME280;14654;48.898;8.308;2023-04-30T11:43:32;100491.28;;;18.93;63.44
15634;BME280;14654;48.898;8.308;2023-04-30T11:46:10;100495.88;;;19.10;61.32
15634;BME280;14654;48.898;8.308;2023-04-30T11:48:37;100490.53;;;19.34;61.59
15634;BME280;14654;48.898;8.308;2023-04-30T11:51:24;100504.28;;;19.60;62.64
15634;BME280;14654;48.898;8.308;2023-04-30T11:53:51;100487.94;;;19.53;61.71
15634;BME280;14654;48.898;8.308;2023-04-30T11:56:21;100485.47;;;19.50;62.74
15634;BME280;14654;48.898;8.308;2023-04-30T11:58:48;100488.16;;;19.69;61.69
15634;BME280;14654;48.898;8.308;2023-04-30T12:01:14;100492.63;;;19.46;60.73
15634;BME280;14654;48.898;8.308;2023-04-30T12:03:45;100496.22;;;19.44;60.03
15634;BME280;14654;48.898;8.308;2023-04-30T12:06:15;100481.06;;;19.50;62.10
15634;BME280;14654;48.898;8.308;2023-04-30T12:08:45;100504.22;;;19.20;60.66
15634;BME280;14654;48.898;8.308;2023-04-30T12:13:52;100477.59;;;19.29;61.91
15634;BME280;14654;48.898;8.308;2023-04-30T12:16:18;100477.44;;;19.12;61.82
15634;BME280;14654;48.898;8.308;2023-04-30T12:18:44;100472.53;;;19.45;61.84
15634;BME280;14654;48.898;8.308;2023-04-30T12:21:10;100492.94;;;19.80;61.03
15634;BME280;14654;48.898;8.308;2023-04-30T12:23:35;100469.41;;;19.98;61.04
15634;BME280;14654;48.898;8.308;2023-04-30T12:26:01;100476.66;;;19.72;59.46
15634;BME280;14654;48.898;8.308;2023-04-30T12:28:27;100481.94;;;19.51;59.30
15634;BME280;14654;48.898;8.308;2023-04-30T12:30:52;100486.97;;;19.35;60.79
15634;BME280;14654;48.898;8.308;2023-04-30T12:33:18;100473.19;;;18.87;58.88
15634;BME280;14654;48.898;8.308;2023-04-30T12:35:44;100471.81;;;19.00;60.23
15634;BME280;14654;48.898;8.308;2023-04-30T12:38:09;100463.22;;;19.17;60.50
15634;BME280;14654;48.898;8.308;2023-04-30T12:40:35;100467.44;;;19.22;60.82
15634;BME280;14654;48.898;8.308;2023-04-30T12:43:05;100468.41;;;19.60;60.15
15634;BME280;14654;48.898;8.308;2023-04-30T12:45:53;100466.78;;;19.37;60.09
15634;BME280;14654;48.898;8.308;2023-04-30T12:48:21;100465.53;;;19.46;60.13
15634;BME280;14654;48.898;8.308;2023-04-30T12:53:15;100460.81;;;19.94;59.17
15634;BME280;14654;48.898;8.308;2023-04-30T12:55:40;100449.81;;;20.05;58.56
15634;BME280;14654;48.898;8.308;2023-04-30T12:58:08;100452.09;;;19.93;57.81
15634;BME280;14654;48.898;8.308;2023-04-30T13:00:44;100454.16;;;19.45;58.68
15634;BME280;14654;48.898;8.308;2023-04-30T13:03:13;100467.94;;;19.71;57.68
15634;BME280;14654;48.898;8.308;2023-04-30T13:05:39;100470.84;;;19.84;58.49